Terminal Aerodrome Forecast
Issued by NWS

Home | Current Version | Previous Version | Text Only | Print | Product List | Glossary On
Versions: 1 2 3 4 5 6 7 8 9 10 11 12 13 14 15 16 17 18 19 20
000
FTUS43 KGRR 281120
TAFBTL
TAF
KBTL 281120Z 2812/2912 16005KT P6SM SCT070
     FM281400 20008KT P6SM BKN070
     FM290800 VRB03KT P6SM VCSH OVC100=

USA.gov is the U.S. government's official web portal to all federal, state and local government web resources and services.